Time;durP1;ratioP1;P1;durP2;ratioP2;P2;SDS_P1;SDS_P2;PMS_P1;PMS_P2;Temp;Humidity;BMP_temperature;BMP_pressure;BME280_temperature;BME280_humidity;BME280_pressure;Samples;Min_cycle;Max_cycle;Signal;HPM_P1;HPM_P2
2023/05/23 00:00:14;;;;;;;4.22;3.17;;;16.40;99.90;;;15.16;85.56;99852.78;10323711;28;97560;-90
2023/05/23 00:05:17;;;;;;;5.15;2.53;;;16.30;99.90;;;15.07;86.05;99850.53;10313983;28;96626;-90
2023/05/23 00:10:21;;;;;;;6.22;3.10;;;16.20;99.90;;;15.01;86.51;99849.50;10300496;28;96715;-90
2023/05/23 00:15:24;;;;;;;4.53;2.47;;;16.20;99.90;;;14.97;86.20;99843.72;10321546;28;96601;-90
2023/05/23 00:20:29;;;;;;;2.85;2.05;;;16.10;99.90;;;15.00;86.43;99845.19;10303630;28;96882;-90
2023/05/23 00:25:35;;;;;;;5.22;3.28;;;16.10;99.90;;;14.90;86.72;99852.78;10323702;28;96925;-90
2023/05/23 00:30:38;;;;;;;5.07;2.67;;;16.10;99.90;;;14.85;87.37;99852.56;10321849;28;96604;-90
2023/05/23 00:35:42;;;;;;;5.38;2.70;;;16.00;99.90;;;14.82;87.62;99842.28;10299180;28;96635;-90
2023/05/23 00:40:45;;;;;;;3.33;2.15;;;16.00;99.90;;;14.80;87.83;99844.31;10307102;28;97273;-91
2023/05/23 00:45:48;;;;;;;5.13;2.70;;;15.90;99.90;;;14.79;88.09;99845.34;10305453;28;97481;-90
2023/05/23 00:50:53;;;;;;;6.15;3.22;;;15.90;99.90;;;14.82;88.33;99843.09;10307415;28;96389;-89
2023/05/23 00:55:56;;;;;;;3.92;2.80;;;16.00;99.90;;;14.84;88.41;99841.03;10321007;28;96566;-89
2023/05/23 01:01:00;;;;;;;6.20;3.05;;;16.00;99.90;;;14.84;88.53;99835.69;10298975;28;96705;-90
2023/05/23 01:06:03;;;;;;;6.80;3.58;;;16.10;99.90;;;14.85;88.89;99842.69;10302434;28;97358;-90
2023/05/23 01:11:20;;;;;;;3.22;2.80;;;16.10;99.90;;;14.87;89.05;99837.97;10299103;28;96660;-90
2023/05/23 01:16:47;;;;;;;8.05;3.25;;;16.10;99.90;;;14.83;88.47;99836.72;10296066;28;97414;-90
2023/05/23 01:21:54;;;;;;;3.90;2.75;;;16.10;99.90;;;14.80;88.79;99844.31;10298646;28;96571;-89
2023/05/23 01:27:38;;;;;;;4.72;3.35;;;16.00;99.90;;;14.72;89.02;99840.81;10338595;28;96923;-90
2023/05/23 01:32:42;;;;;;;6.00;3.10;;;15.90;99.90;;;14.61;89.09;99835.25;10324209;28;97325;-90
2023/05/23 01:37:45;;;;;;;8.65;3.30;;;15.80;99.90;;;14.44;88.97;99835.56;10304726;28;96601;-90
2023/05/23 01:42:48;;;;;;;6.85;2.90;;;15.60;99.90;;;14.34;89.36;99837.00;10293507;28;97716;-90
2023/05/23 01:47:53;;;;;;;6.10;2.97;;;15.50;99.90;;;14.26;89.86;99837.16;10303018;28;96517;-89
2023/05/23 01:52:57;;;;;;;5.97;3.10;;;15.30;99.90;;;14.25;89.93;99832.84;10301886;28;96578;-90
2023/05/23 01:58:01;;;;;;;6.03;3.30;;;15.30;99.90;;;14.24;90.40;99832.03;10321588;28;96548;-89
2023/05/23 02:03:05;;;;;;;4.32;2.78;;;15.30;99.90;;;14.24;90.47;99820.53;10303314;28;97204;-89
2023/05/23 02:08:08;;;;;;;6.20;2.80;;;15.40;99.90;;;14.25;90.80;99816.81;10309738;28;97461;-89
2023/05/23 02:13:11;;;;;;;7.57;2.92;;;15.40;99.90;;;14.25;90.52;99819.50;10291445;28;96851;-90
2023/05/23 02:18:14;;;;;;;3.90;2.90;;;15.40;99.90;;;14.16;90.29;99822.34;10315097;28;98242;-89
2023/05/23 02:23:17;;;;;;;4.30;2.90;;;15.30;99.90;;;14.06;91.13;99816.56;10298885;28;96919;-90
2023/05/23 02:28:21;;;;;;;8.40;4.45;;;15.20;99.90;;;13.96;91.63;99818.75;10314524;28;96803;-90
2023/05/23 02:33:24;;;;;;;7.47;4.35;;;15.10;99.90;;;13.93;92.03;99811.16;10297562;28;96574;-90
2023/05/23 02:38:28;;;;;;;10.20;5.03;;;15.00;99.90;;;13.93;92.27;99817.31;10299134;28;97443;-89
2023/05/23 02:43:31;;;;;;;5.30;3.72;;;15.10;99.90;;;13.94;92.24;99810.13;10337349;28;96463;-90
2023/05/23 02:48:34;;;;;;;4.80;3.13;;;15.10;99.90;;;13.91;92.04;99806.03;10301583;28;97535;-89
2023/05/23 02:53:37;;;;;;;6.60;4.73;;;15.10;99.90;;;13.92;92.29;99807.66;10306247;28;96585;-90
2023/05/23 02:58:41;;;;;;;6.63;3.90;;;15.10;99.90;;;13.93;92.06;99811.16;10345191;28;96347;-90
2023/05/23 03:03:44;;;;;;;4.77;3.67;;;15.10;99.90;;;13.92;92.28;99801.50;10306008;28;96596;-90
2023/05/23 03:08:47;;;;;;;7.00;3.80;;;15.10;99.90;;;13.86;92.57;99805.78;10304542;28;96562;-89
2023/05/23 03:13:51;;;;;;;4.43;3.28;;;15.00;99.90;;;13.85;92.81;99808.63;10287110;28;96460;-90
2023/05/23 03:18:54;;;;;;;7.23;3.77;;;15.00;99.90;;;13.82;93.03;99817.06;10301798;28;97195;-90
2023/05/23 03:23:57;;;;;;;5.80;3.50;;;15.00;99.90;;;13.84;93.32;99828.34;10325341;28;96505;-90
2023/05/23 03:29:01;;;;;;;4.63;3.30;;;15.00;99.90;;;13.84;93.55;99823.03;10285749;28;96351;-90
2023/05/23 03:34:04;;;;;;;4.90;3.65;;;15.00;99.90;;;13.83;94.29;99821.38;10332826;28;96539;-90
2023/05/23 03:39:07;;;;;;;5.75;3.20;;;15.00;99.90;;;13.87;94.68;99817.28;10290678;28;96512;-91
2023/05/23 03:44:10;;;;;;;4.75;3.50;;;15.00;99.90;;;13.88;94.94;99816.28;10324629;28;96480;-91
2023/05/23 03:49:14;;;;;;;7.53;5.10;;;15.10;99.90;;;13.91;94.94;99821.19;10275956;28;96936;-91
2023/05/23 03:54:17;;;;;;;5.95;4.50;;;15.00;99.90;;;13.91;94.86;99826.53;10304006;28;98237;-91
2023/05/23 03:59:21;;;;;;;9.45;4.43;;;15.00;99.90;;;13.90;95.10;99828.38;10276392;28;98207;-91
2023/05/23 04:04:25;;;;;;;6.80;4.28;;;15.00;99.90;;;13.91;95.34;99823.88;10322732;28;97181;-91
2023/05/23 04:09:28;;;;;;;3.92;3.03;;;15.00;99.90;;;13.94;95.80;99812.81;10307956;28;96584;-89
2023/05/23 04:14:32;;;;;;;11.07;4.97;;;15.00;99.90;;;14.03;95.92;99814.25;10300709;28;96778;-89
2023/05/23 04:19:35;;;;;;;4.88;3.72;;;15.10;99.90;;;14.14;96.20;99818.22;10312803;28;98513;-90
2023/05/23 04:24:38;;;;;;;12.20;3.88;;;15.30;99.90;;;14.26;96.28;99821.13;10287535;28;97411;-90
2023/05/23 04:29:43;;;;;;;5.60;3.55;;;15.40;99.90;;;14.38;96.38;99814.19;10307515;28;96650;-90
2023/05/23 04:34:46;;;;;;;6.57;4.07;;;15.60;99.90;;;14.52;96.02;99812.41;10295711;28;96598;-90
2023/05/23 04:39:49;;;;;;;7.35;3.30;;;15.70;99.90;;;14.60;95.25;99813.03;10312210;28;96843;-89
2023/05/23 04:44:55;;;;;;;5.68;3.17;;;15.80;99.90;;;14.70;95.02;99818.81;10316550;28;96598;-89
2023/05/23 04:49:59;;;;;;;8.52;3.88;;;15.90;99.90;;;14.83;95.16;99809.16;10305876;28;97540;-92
2023/05/23 04:55:03;;;;;;;3.92;3.38;;;16.00;99.90;;;14.98;95.07;99810.59;10306123;28;96651;-93
2023/05/23 05:00:10;;;;;;;6.72;3.78;;;16.10;99.90;;;15.10;94.16;99805.44;10314819;28;99139;-90
2023/05/23 05:05:13;;;;;;;5.47;3.03;;;16.20;99.90;;;15.30;94.89;99800.09;10292602;28;97451;-92
2023/05/23 05:10:16;;;;;;;5.32;3.58;;;16.40;99.90;;;15.53;94.42;99791.56;10292916;28;96606;-92
2023/05/23 05:15:19;;;;;;;6.15;4.07;;;16.60;99.90;;;15.77;94.02;99792.75;10293520;28;97116;-90
2023/05/23 05:20:22;;;;;;;5.35;3.65;;;16.90;99.90;;;16.03;93.13;99798.03;10304791;28;97552;-89
2023/05/23 05:25:30;;;;;;;7.95;4.53;;;17.10;99.90;;;16.29;91.56;99794.41;10293622;28;98334;-90
2023/05/23 05:30:37;;;;;;;6.57;3.58;;;17.40;99.90;;;16.52;89.87;99798.41;10339626;28;96584;-88
2023/05/23 05:35:41;;;;;;;9.27;4.38;;;17.60;99.90;;;16.74;89.42;99793.53;10325943;28;96510;-89
2023/05/23 05:40:44;;;;;;;4.88;3.08;;;17.80;99.90;;;16.93;88.02;99797.09;10339641;28;96567;-90
2023/05/23 05:45:47;;;;;;;15.27;3.75;;;18.00;99.90;;;17.10;87.00;99804.38;10307346;28;96615;-89
2023/05/23 05:50:50;;;;;;;6.25;3.70;;;18.30;99.90;;;17.30;86.45;99798.81;10341940;28;96563;-89
2023/05/23 05:55:54;;;;;;;4.00;3.10;;;18.50;99.90;;;17.31;85.61;99796.97;10326541;28;96989;-88
2023/05/23 06:00:57;;;;;;;9.65;3.70;;;18.50;99.90;;;17.52;85.92;99801.09;10315689;28;96945;-89
2023/05/23 06:06:00;;;;;;;6.57;3.35;;;18.70;99.90;;;17.81;85.17;99804.94;10281591;28;96548;-89
2023/05/23 06:11:04;;;;;;;4.03;2.95;;;19.00;99.90;;;18.06;84.23;99800.28;10280984;28;97162;-89
2023/05/23 06:16:07;;;;;;;5.47;2.80;;;19.20;99.90;;;18.33;82.01;99791.88;10281538;28;96514;-89
2023/05/23 06:21:10;;;;;;;8.45;2.78;;;19.50;99.90;;;18.58;79.09;99794.41;10281881;28;96986;-89
2023/05/23 06:26:13;;;;;;;8.57;3.03;;;19.80;99.90;;;18.73;75.95;99786.75;10267548;28;97832;-89
2023/05/23 06:31:16;;;;;;;7.20;3.00;;;19.90;99.90;;;18.83;74.92;99787.03;10283309;28;96527;-89
2023/05/23 06:36:19;;;;;;;6.03;2.78;;;20.10;99.90;;;19.02;73.58;99785.06;10275751;28;96590;-89
2023/05/23 06:41:22;;;;;;;5.32;2.80;;;20.20;99.90;;;19.18;72.62;99781.63;10279835;28;96457;-88
2023/05/23 06:46:26;;;;;;;4.90;2.88;;;20.40;99.90;;;19.38;71.19;99789.38;10302086;28;96628;-89
2023/05/23 06:51:30;;;;;;;8.30;3.58;;;20.60;99.90;;;19.45;71.05;99779.28;10303653;28;96553;-88
2023/05/23 06:56:35;;;;;;;6.03;3.58;;;20.70;99.90;;;19.67;72.34;99768.75;10280503;28;96904;-88
2023/05/23 07:01:39;;;;;;;12.60;3.83;;;20.90;99.90;;;19.94;72.44;99768.22;10305809;28;96634;-88
2023/05/23 07:06:42;;;;;;;5.07;2.80;;;21.10;99.90;;;20.22;69.96;99762.81;10285951;28;96590;-88
2023/05/23 07:11:45;;;;;;;6.80;3.70;;;21.40;99.90;;;20.45;69.33;99763.75;10316280;28;97492;-88
2023/05/23 07:16:48;;;;;;;4.55;3.20;;;21.60;99.90;;;20.72;68.84;99754.00;10268459;28;97435;-88
2023/05/23 07:21:51;;;;;;;6.35;3.67;;;21.90;99.90;;;20.98;67.54;99749.81;10300370;28;96541;-88
2023/05/23 07:26:54;;;;;;;4.32;2.97;;;22.20;99.90;;;21.19;65.87;99744.72;10298926;28;96596;-88
2023/05/23 07:31:58;;;;;;;5.03;2.92;;;22.40;99.20;;;21.41;63.95;99751.03;10288318;28;96691;-88
2023/05/23 07:37:01;;;;;;;4.40;2.60;;;22.60;98.30;;;21.60;63.04;99751.53;10311607;28;96504;-90
2023/05/23 07:42:04;;;;;;;4.60;2.85;;;22.80;97.60;;;21.74;62.10;99751.97;10323029;28;96868;-89
2023/05/23 07:47:07;;;;;;;5.43;2.92;;;23.00;96.80;;;21.87;60.75;99738.88;10341399;28;96669;-88
2023/05/23 07:52:10;;;;;;;6.13;2.80;;;23.10;96.20;;;22.05;61.30;99742.31;10326613;28;96542;-89
2023/05/23 07:57:15;;;;;;;6.28;2.88;;;23.30;95.90;;;22.24;61.22;99732.00;10299920;28;96802;-89
2023/05/23 08:02:19;;;;;;;9.50;2.90;;;23.40;95.60;;;22.36;60.38;99728.03;10288947;28;97266;-89
2023/05/23 08:07:22;;;;;;;4.47;3.35;;;23.50;95.10;;;22.55;59.77;99730.38;10268542;28;96493;-89
2023/05/23 08:12:26;;;;;;;5.63;3.00;;;23.70;94.70;;;22.70;58.41;99734.03;10306023;28;96730;-89
2023/05/23 08:17:29;;;;;;;3.85;2.65;;;23.90;93.90;;;22.85;58.37;99735.22;10283004;28;97004;-89
2023/05/23 08:22:32;;;;;;;6.78;3.47;;;24.00;93.50;;;22.89;57.34;99725.53;10268110;28;96352;-90
2023/05/23 08:27:35;;;;;;;7.22;3.65;;;24.10;92.90;;;22.96;58.23;99723.41;10284115;28;97135;-89
2023/05/23 08:32:38;;;;;;;5.53;3.13;;;24.10;92.80;;;23.19;58.58;99722.19;10294868;28;98154;-90
2023/05/23 08:37:41;;;;;;;8.82;3.58;;;24.30;92.80;;;23.39;59.37;99716.06;10308520;28;98796;-90
2023/05/23 08:42:48;;;;;;;5.78;3.42;;;24.50;92.60;;;23.56;56.49;99713.16;10306879;28;96575;-89
2023/05/23 08:47:53;;;;;;;4.72;3.30;;;24.70;92.10;;;23.77;57.15;99710.31;10337988;28;96813;-91
2023/05/23 08:52:58;;;;;;;7.45;3.65;;;24.90;91.70;;;24.02;56.91;99711.44;10271088;28;96944;-88
2023/05/23 08:58:02;;;;;;;8.25;3.50;;;25.10;91.60;;;24.25;53.53;99719.09;10282249;28;96689;-88
2023/05/23 09:03:07;;;;;;;6.57;3.22;;;25.40;90.80;;;24.42;54.60;99712.63;10318538;28;96617;-88
2023/05/23 09:08:12;;;;;;;5.60;3.25;;;25.50;90.40;;;24.64;54.50;99712.34;10316633;28;96572;-88
2023/05/23 09:13:22;;;;;;;6.47;3.10;;;25.80;90.20;;;24.82;53.38;99709.88;10294401;28;96690;-88
2023/05/23 09:18:26;;;;;;;6.45;3.50;;;26.00;89.40;;;24.98;52.02;99699.00;10279626;28;96606;-89
2023/05/23 09:23:34;;;;;;;6.80;3.20;;;26.10;87.10;;;25.11;50.60;99700.38;10297121;28;96534;-88
2023/05/23 09:28:39;;;;;;;5.93;3.50;;;26.30;85.50;;;25.24;49.83;99695.16;10306506;28;96994;-89
2023/05/23 09:33:47;;;;;;;7.18;3.28;;;26.40;83.40;;;25.42;50.23;99691.00;10299389;28;97860;-87
2023/05/23 09:38:51;;;;;;;5.47;3.30;;;26.60;83.30;;;25.58;48.68;99689.88;10280853;28;96629;-88
2023/05/23 09:43:55;;;;;;;6.38;3.33;;;26.80;81.10;;;25.71;48.74;99687.63;10288450;28;96948;-88
2023/05/23 09:48:59;;;;;;;5.13;3.58;;;26.90;79.70;;;25.89;46.72;99678.84;10310534;28;96956;-88
2023/05/23 09:54:02;;;;;;;4.22;3.20;;;27.10;78.30;;;26.13;46.15;99676.25;10303441;28;96952;-87
2023/05/23 09:59:07;;;;;;;4.55;3.00;;;27.30;77.10;;;26.32;46.03;99674.47;10315636;28;98976;-88
2023/05/23 10:04:11;;;;;;;4.82;2.75;;;27.60;75.90;;;26.35;45.21;99675.81;10293008;28;96676;-89
2023/05/23 10:09:17;;;;;;;4.72;3.05;;;27.60;74.80;;;26.21;45.56;99664.75;10319824;28;98220;-89
2023/05/23 10:14:20;;;;;;;6.57;3.22;;;27.50;74.70;;;26.14;46.84;99670.50;10296667;28;96614;-89
2023/05/23 10:19:46;;;;;;;3.95;3.17;;;27.40;74.50;;;26.10;45.32;99665.94;10294986;28;96794;-88
2023/05/23 10:24:50;;;;;;;6.85;3.72;;;27.30;73.80;;;25.90;45.95;99677.75;10319475;28;96838;-88
2023/05/23 10:29:53;;;;;;;4.03;2.97;;;27.20;73.60;;;25.93;47.20;99676.38;10297937;28;96623;-88
2023/05/23 10:35:03;;;;;;;6.03;3.50;;;27.20;74.40;;;25.79;46.91;99662.56;10301368;28;97546;-89
2023/05/23 10:40:20;;;;;;;4.75;3.47;;;27.00;73.30;;;25.82;48.24;99660.09;10317356;28;96675;-88
2023/05/23 10:45:23;;;;;;;5.53;3.40;;;27.00;74.40;;;26.20;47.62;99651.41;10319422;28;97106;-88
2023/05/23 10:50:36;;;;;;;5.38;3.05;;;27.40;74.60;;;26.67;45.32;99642.59;10310466;28;97174;-88
2023/05/23 10:55:39;;;;;;;7.47;3.08;;;27.70;73.20;;;27.06;44.73;99633.50;10313857;28;96538;-88
2023/05/23 11:01:06;;;;;;;5.43;3.28;;;28.10;72.20;;;27.32;44.07;99631.25;10269367;28;96819;-88
2023/05/23 11:06:31;;;;;;;5.47;3.47;;;28.40;71.40;;;27.60;43.01;99616.69;10336026;28;96589;-88
2023/05/23 11:11:50;;;;;;;4.55;3.03;;;28.70;70.60;;;27.86;42.69;99619.06;10322899;28;96737;-88
2023/05/23 11:16:54;;;;;;;4.90;3.25;;;29.00;69.60;;;27.96;41.48;99611.53;10303802;28;96959;-89
2023/05/23 11:22:01;;;;;;;5.10;3.15;;;29.10;67.50;;;28.17;39.18;99603.00;10296170;28;97433;-88
2023/05/23 11:27:11;;;;;;;5.10;2.83;;;29.30;65.80;;;28.07;40.02;99594.97;10287454;28;97283;-88
2023/05/23 11:32:14;;;;;;;5.15;3.22;;;29.30;65.00;;;28.03;39.36;99583.84;10303603;28;98099;-89
2023/05/23 11:37:22;;;;;;;4.65;3.20;;;29.30;64.20;;;27.98;40.30;99583.94;10305464;28;96583;-89
2023/05/23 11:42:28;;;;;;;4.20;3.15;;;29.20;64.50;;;27.79;39.70;99572.22;10309953;28;97571;-88
2023/05/23 11:47:39;;;;;;;4.72;3.20;;;29.00;64.10;;;27.78;40.97;99567.88;10294917;28;98685;-88
2023/05/23 11:52:43;;;;;;;5.50;3.42;;;28.90;64.80;;;27.76;39.88;99568.16;10290168;28;96624;-88
2023/05/23 11:57:48;;;;;;;4.38;3.55;;;28.90;63.90;;;27.51;40.79;99561.16;10291893;28;96676;-87
2023/05/23 12:02:50;;;;;;;11.70;3.70;;;28.70;64.20;;;27.15;43.46;99558.09;10303999;28;96804;-88
2023/05/23 12:07:54;;;;;;;9.80;4.43;;;28.40;66.70;;;26.72;50.65;99565.41;10324169;28;96767;-88
2023/05/23 12:12:57;;;;;;;6.00;3.75;;;28.00;71.70;;;26.29;51.16;99551.66;10305367;28;96571;-87
2023/05/23 12:18:00;;;;;;;5.53;3.75;;;27.60;72.40;;;26.12;51.92;99535.75;10302851;28;98022;-86
2023/05/23 12:23:05;;;;;;;7.20;3.55;;;27.40;73.60;;;26.05;48.71;99532.56;10300548;28;96848;-87
2023/05/23 12:28:12;;;;;;;5.60;3.95;;;27.30;72.70;;;26.21;51.38;99531.31;10307388;28;96521;-87
2023/05/23 12:33:18;;;;;;;4.35;3.20;;;27.50;73.80;;;26.36;53.14;99522.97;10328667;28;96575;-87
2023/05/23 12:38:22;;;;;;;5.38;3.22;;;27.60;75.00;;;26.61;48.95;99504.75;10342870;28;96830;-88
2023/05/23 12:43:25;;;;;;;3.97;2.42;;;27.90;73.60;;;26.94;45.68;99501.09;10320384;28;97480;-88
2023/05/23 12:48:28;;;;;;;4.40;2.70;;;28.20;71.10;;;26.73;43.31;99502.44;10313468;28;97143;-88
2023/05/23 12:53:32;;;;;;;4.35;2.90;;;28.10;68.40;;;26.46;45.56;99491.34;10338782;28;99162;-88
2023/05/23 12:58:35;;;;;;;3.33;2.95;;;27.80;68.60;;;26.76;45.07;99485.50;10300059;28;97362;-88
2023/05/23 13:03:38;;;;;;;4.88;2.88;;;27.90;68.70;;;27.26;42.34;99485.94;10297705;28;96750;-89
2023/05/23 13:08:42;;;;;;;4.75;2.88;;;28.40;66.60;;;27.59;42.10;99475.06;10322563;28;96574;-88
2023/05/23 13:13:46;;;;;;;4.45;3.30;;;28.70;65.20;;;27.86;40.35;99472.44;10293587;28;96678;-88
2023/05/23 13:18:49;;;;;;;6.22;4.10;;;29.00;64.40;;;28.08;40.44;99476.47;10297189;28;96777;-88
2023/05/23 13:23:52;;;;;;;4.93;2.97;;;29.20;63.20;;;28.40;39.10;99472.88;10305271;28;96756;-88
2023/05/23 13:28:55;;;;;;;5.13;4.07;;;29.50;62.60;;;28.30;40.93;99473.81;10315123;28;96579;-88
2023/05/23 13:33:58;;;;;;;5.45;3.25;;;29.40;62.70;;;28.38;39.94;99475.91;10303766;28;96966;-89
2023/05/23 13:39:02;;;;;;;4.32;3.13;;;29.50;62.70;;;28.52;39.49;99473.97;10296866;28;96584;-88
2023/05/23 13:44:07;;;;;;;5.50;3.20;;;29.60;62.00;;;28.21;37.91;99468.28;10303948;28;97530;-88
2023/05/23 13:49:11;;;;;;;6.93;3.17;;;29.40;60.40;;;28.23;39.41;99463.31;10316612;28;98262;-88
2023/05/23 13:54:14;;;;;;;5.47;3.35;;;29.30;61.20;;;28.12;38.32;99464.59;10296625;28;97209;-88
2023/05/23 13:59:20;;;;;;;3.65;2.80;;;29.30;60.00;;;28.36;38.92;99458.97;10320022;28;96605;-88
2023/05/23 14:04:23;;;;;;;5.97;3.10;;;29.40;60.80;;;28.48;38.02;99461.22;10319314;28;98216;-88
2023/05/23 14:09:26;;;;;;;5.65;3.17;;;29.50;59.80;;;28.83;38.62;99451.47;10313393;28;96613;-89
2023/05/23 14:14:29;;;;;;;3.70;2.58;;;29.80;60.50;;;28.62;35.89;99442.09;10310924;28;98799;-89
2023/05/23 14:19:32;;;;;;;7.35;2.85;;;29.80;58.20;;;28.72;37.34;99441.84;10320882;28;96642;-88
2023/05/23 14:24:35;;;;;;;4.15;2.78;;;29.80;58.60;;;28.71;34.93;99430.13;10312695;28;96564;-89
2023/05/23 14:29:38;;;;;;;3.03;2.38;;;30.00;56.80;;;28.78;36.66;99433.22;10319737;28;97634;-88
2023/05/23 14:34:41;;;;;;;4.88;2.95;;;30.00;58.10;;;28.82;34.15;99436.16;10283523;28;97243;-88
2023/05/23 14:39:45;;;;;;;3.90;1.95;;;30.20;54.30;;;28.89;32.11;99428.34;10300910;28;96647;-89
2023/05/23 14:44:48;;;;;;;2.83;1.98;;;30.50;52.40;;;28.97;32.14;99426.88;10322209;28;98959;-87
2023/05/23 14:49:50;;;;;;;4.05;2.13;;;30.70;52.40;;;29.16;33.22;99426.69;10296396;28;98886;-88
2023/05/23 14:54:53;;;;;;;7.13;2.97;;;31.00;52.60;;;29.24;31.95;99434.97;10295489;28;98634;-88
2023/05/23 14:59:57;;;;;;;4.05;2.60;;;31.40;51.00;;;29.29;32.23;99439.50;10300819;28;97309;-89
2023/05/23 15:05:00;;;;;;;3.55;2.17;;;31.30;50.90;;;29.51;32.82;99438.72;10323232;28;97890;-88
2023/05/23 15:10:05;;;;;;;3.80;2.40;;;31.40;51.60;;;29.74;32.59;99440.31;10323720;28;97617;-89
2023/05/23 15:15:09;;;;;;;4.43;2.30;;;31.60;51.90;;;29.81;33.91;99440.69;10290830;28;97383;-88
2023/05/23 15:20:12;;;;;;;2.88;2.30;;;31.60;53.00;;;29.83;33.31;99443.13;10286794;28;97284;-89
2023/05/23 15:25:15;;;;;;;4.68;2.60;;;31.60;53.00;;;29.81;34.13;99445.38;10304105;28;96508;-89
2023/05/23 15:30:23;;;;;;;4.00;2.58;;;31.60;53.00;;;29.41;34.86;99441.69;10308513;28;98650;-89
2023/05/23 15:35:26;;;;;;;3.53;2.67;;;31.10;53.30;;;28.83;35.05;99458.84;10299344;28;96642;-89
2023/05/23 15:40:29;;;;;;;4.45;2.28;;;30.40;53.70;;;28.15;35.18;99455.81;10309221;28;97488;-88
2023/05/23 15:45:33;;;;;;;4.45;2.00;;;29.70;53.70;;;27.77;36.66;99446.13;10302109;28;98477;-89
2023/05/23 15:50:36;;;;;;;5.50;2.35;;;29.10;54.60;;;27.47;37.68;99438.16;10305091;28;96588;-89
2023/05/23 15:55:40;;;;;;;3.72;2.10;;;28.70;55.50;;;27.09;35.86;99437.38;10315212;28;96876;-88
2023/05/23 16:00:44;;;;;;;4.85;2.53;;;28.30;54.50;;;26.77;36.47;99445.44;10336394;28;96697;-88
2023/05/23 16:05:47;;;;;;;5.60;1.88;;;28.00;54.80;;;26.50;36.52;99446.84;10320330;28;96478;-88
2023/05/23 16:10:51;;;;;;;2.53;1.75;;;27.70;55.00;;;26.32;37.52;99442.13;10308385;28;96524;-88
2023/05/23 16:15:54;;;;;;;3.92;1.90;;;27.50;55.50;;;26.19;37.17;99453.72;10299026;28;97842;-88
2023/05/23 16:20:57;;;;;;;4.45;2.67;;;27.30;55.40;;;26.00;40.11;99446.28;10307550;28;96581;-88
2023/05/23 16:26:00;;;;;;;3.50;2.20;;;27.20;56.80;;;25.68;42.40;99455.00;10302465;28;96590;-88
2023/05/23 16:31:03;;;;;;;5.30;2.65;;;26.90;58.40;;;25.38;43.00;99445.19;10301016;28;96616;-88
2023/05/23 16:36:06;;;;;;;3.65;2.40;;;26.50;59.30;;;25.12;44.19;99458.13;10312691;28;97350;-87
2023/05/23 16:41:09;;;;;;;4.47;2.30;;;26.30;60.40;;;24.86;45.60;99467.50;10313210;28;97229;-88
2023/05/23 16:46:12;;;;;;;5.22;2.40;;;26.00;61.40;;;24.72;46.25;99487.13;10291378;28;96619;-87
2023/05/23 16:51:16;;;;;;;3.30;2.40;;;25.90;62.10;;;24.57;46.99;99484.47;10282851;28;96621;-87
2023/05/23 16:56:20;;;;;;;4.53;2.33;;;25.70;62.90;;;24.39;48.12;99476.91;10283463;28;98062;-87
2023/05/23 17:01:23;;;;;;;3.50;2.35;;;25.50;64.00;;;24.20;50.12;99517.38;10318283;28;96698;-87
2023/05/23 17:06:26;;;;;;;5.93;3.15;;;25.30;65.60;;;23.59;47.90;99577.84;10306487;28;96855;-89
2023/05/23 17:11:29;;;;;;;10.45;3.20;;;24.70;65.60;;;22.58;50.35;99592.59;10309506;28;97653;-88
2023/05/23 17:16:33;;;;;;;9.63;3.20;;;23.80;67.80;;;21.69;53.75;99604.00;10320052;28;99270;-88
2023/05/23 17:21:36;;;;;;;9.15;3.08;;;22.90;70.80;;;21.02;55.77;99605.09;10317546;28;96753;-88
2023/05/23 17:26:39;;;;;;;11.27;5.40;;;22.20;73.20;;;20.66;57.23;99632.69;10306054;28;96628;-86
2023/05/23 17:31:43;;;;;;;6.35;3.72;;;21.70;74.50;;;20.31;60.22;99629.16;10293132;28;97432;-88
2023/05/23 17:36:46;;;;;;;6.60;3.67;;;21.40;77.70;;;20.07;61.95;99643.03;10318539;28;98407;-87
2023/05/23 17:41:49;;;;;;;7.18;3.15;;;21.10;79.70;;;19.84;63.38;99646.66;10321447;28;97521;-86
2023/05/23 17:46:52;;;;;;;10.55;3.90;;;20.80;81.20;;;19.58;64.69;99639.97;10302415;28;96530;-87
2023/05/23 17:51:55;;;;;;;9.80;3.72;;;20.60;82.30;;;19.39;66.15;99660.88;10296298;28;96520;-87
2023/05/23 17:56:58;;;;;;;6.05;3.75;;;20.40;84.40;;;19.19;67.49;99650.47;10334557;28;96646;-86
2023/05/23 18:02:03;;;;;;;5.95;3.80;;;20.20;85.60;;;19.03;69.21;99652.03;10324129;28;96615;-87
2023/05/23 18:07:11;;;;;;;5.45;3.25;;;20.10;87.30;;;18.91;69.73;99662.00;10315466;28;96581;-86
2023/05/23 18:12:15;;;;;;;5.95;3.40;;;19.90;88.30;;;18.79;69.10;99672.78;10291821;28;96613;-85
2023/05/23 18:17:18;;;;;;;6.75;2.45;;;19.80;88.80;;;18.79;67.68;99678.16;10312482;28;96763;-86
2023/05/23 18:22:23;;;;;;;4.30;3.00;;;19.80;88.10;;;18.80;68.11;99668.22;10336056;28;97289;-85
2023/05/23 18:27:26;;;;;;;6.35;3.00;;;19.80;88.20;;;18.71;69.65;99670.41;10293596;28;98437;-85
2023/05/23 18:32:30;;;;;;;4.80;2.92;;;19.70;89.30;;;18.52;72.29;99675.06;10313238;28;97176;-86
2023/05/23 18:37:33;;;;;;;3.95;2.80;;;19.60;91.00;;;18.26;73.89;99657.50;10303456;28;96669;-89
2023/05/23 18:42:36;;;;;;;4.13;2.80;;;19.40;91.90;;;17.86;78.49;99647.31;10294859;28;96942;-91
2023/05/23 18:47:39;;;;;;;4.20;3.05;;;19.00;94.90;;;17.36;81.61;99663.66;10297527;28;98357;-90
2023/05/23 18:52:42;;;;;;;4.15;3.00;;;18.50;98.40;;;17.01;83.81;99695.63;10300920;28;98094;-87
2023/05/23 18:57:45;;;;;;;3.50;2.60;;;18.10;99.90;;;16.81;85.25;99719.16;10319107;28;96805;-86
2023/05/23 19:02:48;;;;;;;4.40;3.10;;;17.90;99.90;;;16.75;85.84;99734.28;10315750;28;98397;-86
2023/05/23 19:07:51;;;;;;;5.00;2.63;;;17.80;99.90;;;16.75;86.63;99734.28;10316388;28;96949;-86
2023/05/23 19:12:55;;;;;;;3.78;2.67;;;17.80;99.90;;;16.82;88.32;99753.81;10320282;28;96642;-86
2023/05/23 19:17:58;;;;;;;3.97;3.13;;;17.90;99.90;;;16.88;89.04;99756.69;10332807;28;96589;-86
2023/05/23 19:23:01;;;;;;;5.13;2.90;;;18.00;99.90;;;16.94;89.35;99766.53;10319955;28;98524;-86
2023/05/23 19:28:05;;;;;;;5.63;2.92;;;18.00;99.90;;;16.99;89.83;99756.78;10281012;28;96866;-86
2023/05/23 19:33:08;;;;;;;4.70;2.70;;;18.10;99.90;;;17.07;90.48;99750.31;10307463;28;98831;-87
2023/05/23 19:38:12;;;;;;;3.67;2.78;;;18.20;99.90;;;17.04;88.85;99758.81;10319461;28;96811;-86
2023/05/23 19:43:15;;;;;;;4.50;3.05;;;18.20;99.90;;;17.05;89.67;99752.41;10323509;28;96568;-87
2023/05/23 19:48:18;;;;;;;4.55;3.28;;;18.20;99.90;;;17.02;90.56;99752.81;10316490;28;98538;-86
2023/05/23 19:53:21;;;;;;;3.92;3.17;;;18.10;99.90;;;17.03;90.62;99743.72;10320834;28;96681;-86
2023/05/23 19:58:24;;;;;;;6.40;3.55;;;18.10;99.90;;;17.01;91.65;99754.69;10338002;28;96577;-86
2023/05/23 20:03:28;;;;;;;5.97;3.60;;;18.10;99.90;;;17.00;91.91;99754.91;10307048;28;98416;-87
2023/05/23 20:08:31;;;;;;;6.10;4.00;;;18.20;99.90;;;16.98;92.79;99754.31;10281254;28;97364;-87
2023/05/23 20:13:36;;;;;;;3.58;2.88;;;18.10;99.90;;;16.98;93.06;99747.09;10306825;28;97374;-87
2023/05/23 20:18:41;;;;;;;4.38;3.45;;;18.10;99.90;;;17.01;93.50;99751.19;10354799;28;96670;-87
2023/05/23 20:23:45;;;;;;;5.50;3.70;;;18.10;99.90;;;17.00;93.94;99757.59;10322587;28;96600;-87
2023/05/23 20:28:48;;;;;;;6.90;3.72;;;18.10;99.90;;;16.93;94.42;99764.91;10317905;28;97358;-86
2023/05/23 20:33:51;;;;;;;4.75;3.40;;;18.10;99.90;;;16.98;95.29;99754.31;10337563;28;96865;-87
2023/05/23 20:38:54;;;;;;;5.55;4.70;;;18.10;99.90;;;16.98;96.00;99760.50;10276095;28;96634;-87
2023/05/23 20:44:00;;;;;;;4.82;3.70;;;18.10;99.90;;;16.92;96.99;99765.94;10317858;28;96688;-88
2023/05/23 20:49:03;;;;;;;6.70;5.00;;;18.10;99.90;;;16.88;97.52;99765.56;10322981;28;96692;-88
2023/05/23 20:54:06;;;;;;;5.43;4.03;;;18.00;99.90;;;16.89;98.21;99777.09;10309723;28;96596;-87
2023/05/23 20:59:11;;;;;;;4.75;3.53;;;18.00;99.90;;;16.71;98.80;99789.41;10292302;28;97549;-87
2023/05/23 21:04:14;;;;;;;5.32;4.07;;;17.90;99.90;;;16.61;99.71;99770.25;10291673;28;97230;-87